Ria Da Coruna — EAGB — position and weather

sailwx.info

Track history (hours):
 
Tides and Currents Weather Stations Pressure Air Temp Water Temp Dewpoint Dewpoint Depression Visibility Wind Speed Wind Dir Waves Ship Positions

Ria Da Coruna

Last reported at 2014-Jan-12 20:06 UTC. Time now 2014-Oct-30 13:56 UTC.
Position N 43°21' W 008°23'.
Warning: this ship's position is months out of date.

Length 28 m.

Type: Fishing. MMSI: 224068650.

Date/timePositionNaut miles runAvg speedWind from/ knotsBaromVisibWave heightAir tempDewpointWater temp
2014-Jan-12 20:06N 43°21' W 008°23'  
2014-Jan-08 21:34N 43°32' W 008°30'10 9.8
2014-Jan-08 20:33N 43°41' W 008°37'10 9.6
2014-Jan-08 19:33N 43°49' W 008°44'0 0.2
2014-Jan-08 18:33N 43°49' W 008°44'3 2.8
2014-Jan-08 17:34N 43°51' W 008°41'3 3.0
2014-Jan-08 16:34N 43°54' W 008°41'2 1.9
2014-Jan-08 15:33N 43°53' W 008°43'3 2.7
2014-Jan-08 14:34N 43°51' W 008°45'3 2.7
2014-Jan-08 13:33N 43°48' W 008°46'3 2.8
2014-Jan-08 12:34N 43°46' W 008°48'3 3.0
2014-Jan-08 11:34N 43°43' W 008°48'1 1.0
2014-Jan-08 10:33N 43°42' W 008°48'1 1.3
2014-Jan-08 09:33N 43°43' W 008°47'3 2.7
2014-Jan-08 08:34N 43°45' W 008°45'3 2.8
2014-Jan-08 07:34N 43°47' W 008°43'3 2.7
2014-Jan-08 06:34N 43°50' W 008°41'3 2.7
2014-Jan-08 05:34N 43°52' W 008°39'3 3.3
2014-Jan-08 04:34N 43°55' W 008°37'1 0.7
2014-Jan-08 03:33N 43°54' W 008°37'3 3.0
2014-Jan-08 02:33N 43°52' W 008°39'3 2.8
2014-Jan-08 01:33N 43°49' W 008°42'3 2.7
2014-Jan-08 00:33N 43°47' W 008°44'3 2.6
2014-Jan-07 23:34N 43°45' W 008°46'3 3.3
2014-Jan-07 22:34N 43°42' W 008°48'0 0.5
2014-Jan-07 21:34N 43°42' W 008°48'3 2.8
2014-Jan-07 20:34N 43°44' W 008°46'3 3.0
2014-Jan-07 19:31N 43°47' W 008°44'3 2.9
2014-Jan-07 18:33N 43°50' W 008°42'3 2.9
2014-Jan-07 17:33N 43°52' W 008°40'3 3.1
2014-Jan-07 16:33N 43°55' W 008°38'1 1.5
2014-Jan-07 15:34N 43°54' W 008°39'3 2.9
2014-Jan-07 14:33N 43°51' W 008°41'3 2.6
2014-Jan-07 13:34N 43°49' W 008°43'  
Track history (hours):
 
Tides and Currents Weather Stations Pressure Air Temp Water Temp Dewpoint Dewpoint Depression Visibility Wind Speed Wind Dir Waves Ship Positions

Ria Da Coruna

Last reported at 2014-Jan-12 20:06 UTC. Time now 2014-Oct-30 13:56 UTC.
Position N 43°21' W 008°23'.
Warning: this ship's position is months out of date.

Length 28 m.

Type: Fishing. MMSI: 224068650.

Date/timePositionNaut miles runAvg speedWind from/ knotsBaromVisibWave heightAir tempDewpointWater temp
2014-Jan-12 20:06N 43°21' W 008°23'  
2014-Jan-08 21:34N 43°32' W 008°30'10 9.8
2014-Jan-08 20:33N 43°41' W 008°37'10 9.6
2014-Jan-08 19:33N 43°49' W 008°44'0 0.2
2014-Jan-08 18:33N 43°49' W 008°44'3 2.8
2014-Jan-08 17:34N 43°51' W 008°41'3 3.0
2014-Jan-08 16:34N 43°54' W 008°41'2 1.9
2014-Jan-08 15:33N 43°53' W 008°43'3 2.7
2014-Jan-08 14:34N 43°51' W 008°45'3 2.7
2014-Jan-08 13:33N 43°48' W 008°46'3 2.8
2014-Jan-08 12:34N 43°46' W 008°48'3 3.0
2014-Jan-08 11:34N 43°43' W 008°48'1 1.0
2014-Jan-08 10:33N 43°42' W 008°48'1 1.3
2014-Jan-08 09:33N 43°43' W 008°47'3 2.7
2014-Jan-08 08:34N 43°45' W 008°45'3 2.8
2014-Jan-08 07:34N 43°47' W 008°43'3 2.7
2014-Jan-08 06:34N 43°50' W 008°41'3 2.7
2014-Jan-08 05:34N 43°52' W 008°39'3 3.3
2014-Jan-08 04:34N 43°55' W 008°37'1 0.7
2014-Jan-08 03:33N 43°54' W 008°37'3 3.0
2014-Jan-08 02:33N 43°52' W 008°39'3 2.8
2014-Jan-08 01:33N 43°49' W 008°42'3 2.7
2014-Jan-08 00:33N 43°47' W 008°44'3 2.6
2014-Jan-07 23:34N 43°45' W 008°46'3 3.3
2014-Jan-07 22:34N 43°42' W 008°48'0 0.5
2014-Jan-07 21:34N 43°42' W 008°48'3 2.8
2014-Jan-07 20:34N 43°44' W 008°46'3 3.0
2014-Jan-07 19:31N 43°47' W 008°44'3 2.9
2014-Jan-07 18:33N 43°50' W 008°42'3 2.9
2014-Jan-07 17:33N 43°52' W 008°40'3 3.1
2014-Jan-07 16:33N 43°55' W 008°38'1 1.5
2014-Jan-07 15:34N 43°54' W 008°39'3 2.9
2014-Jan-07 14:33N 43°51' W 008°41'3 2.6
2014-Jan-07 13:34N 43°49' W 008°43'  

Dump ship's entire track history